Time;durP1;ratioP1;P1;durP2;ratioP2;P2;SDS_P1;SDS_P2;PMS_P1;PMS_P2;Temp;Humidity;BMP_temperature;BMP_pressure;BME280_temperature;BME280_humidity;BME280_pressure;Samples;Min_cycle;Max_cycle;Signal;HPM_P1;HPM_P2
2022/07/20 00:01:17;;;;;;;9.87;3.23;;;;;;;;;;4993055;28;20176;-44
2022/07/20 00:03:45;;;;;;;16.63;4.30;;;;;;;;;;4985274;28;20917;-44
2022/07/20 00:06:12;;;;;;;13.50;3.87;;;;;;;;;;4991905;28;20571;-43
2022/07/20 00:11:23;;;;;;;6.10;3.30;;;;;;;;;;4992094;28;20648;-44
2022/07/20 00:13:49;;;;;;;6.33;2.77;;;;;;;;;;4989657;28;21741;-44
2022/07/20 00:16:15;;;;;;;13.63;3.53;;;;;;;;;;4992775;28;20230;-42
2022/07/20 00:18:41;;;;;;;7.80;2.90;;;;;;;;;;4993432;28;20294;-42
2022/07/20 00:21:07;;;;;;;6.23;2.90;;;;;;;;;;4990193;28;20601;-42
2022/07/20 00:23:33;;;;;;;6.40;2.80;;;;;;;;;;4988299;28;20504;-42
2022/07/20 00:25:59;;;;;;;5.93;3.20;;;;;;;;;;4992865;28;20386;-42
2022/07/20 00:28:25;;;;;;;5.57;2.70;;;;;;;;;;4991702;28;20184;-42
2022/07/20 00:30:51;;;;;;;6.20;3.00;;;;;;;;;;4993809;28;20991;-41
2022/07/20 00:33:17;;;;;;;6.00;2.90;;;;;;;;;;4996073;28;20185;-42
2022/07/20 00:35:43;;;;;;;5.57;2.87;;;;;;;;;;4990380;28;20755;-42
2022/07/20 00:38:10;;;;;;;6.83;3.20;;;;;;;;;;4988288;28;20509;-42
2022/07/20 00:40:36;;;;;;;7.43;3.10;;;;;;;;;;4991402;28;20169;-41
2022/07/20 00:43:02;;;;;;;7.77;3.50;;;;;;;;;;4993198;28;21048;-42
2022/07/20 00:45:28;;;;;;;4.17;2.77;;;;;;;;;;4992305;28;20266;-42
2022/07/20 00:47:54;;;;;;;8.57;2.97;;;;;;;;;;4992122;28;20181;-42
2022/07/20 00:50:20;;;;;;;4.63;3.33;;;;;;;;;;4992882;28;20267;-42
2022/07/20 00:52:46;;;;;;;6.30;3.37;;;;;;;;;;4991961;28;20215;-42
2022/07/20 00:55:12;;;;;;;6.70;3.27;;;;;;;;;;4989693;28;20870;-42
2022/07/20 00:57:38;;;;;;;9.90;3.20;;;;;;;;;;4992735;28;20839;-42
2022/07/20 01:00:07;;;;;;;7.40;3.23;;;;;;;;;;4995587;28;20182;-42
2022/07/20 01:02:33;;;;;;;6.60;3.43;;;;;;;;;;4997497;28;20360;-42
2022/07/20 01:04:59;;;;;;;7.60;3.40;;;;;;;;;;4993441;28;20257;-42
2022/07/20 01:07:25;;;;;;;8.03;3.37;;;;;;;;;;4995764;28;20180;-42
2022/07/20 01:09:52;;;;;;;8.53;3.20;;;;;;;;;;4994167;28;20192;-42
2022/07/20 01:12:18;;;;;;;8.30;3.47;;;;;;;;;;4994747;28;20544;-42
2022/07/20 01:14:44;;;;;;;8.37;3.60;;;;;;;;;;4992492;28;20965;-42
2022/07/20 01:17:11;;;;;;;7.30;3.47;;;;;;;;;;4993407;28;20352;-42
2022/07/20 01:19:37;;;;;;;6.07;3.50;;;;;;;;;;4994666;28;20212;-42
2022/07/20 01:22:04;;;;;;;8.63;3.50;;;;;;;;;;4993603;28;20389;-42
2022/07/20 01:24:30;;;;;;;8.10;3.70;;;;;;;;;;4989106;28;20181;-42
2022/07/20 01:26:56;;;;;;;10.63;3.63;;;;;;;;;;4995124;28;20619;-42
2022/07/20 01:29:22;;;;;;;5.87;3.53;;;;;;;;;;4992311;28;20184;-43
2022/07/20 01:31:48;;;;;;;8.17;3.20;;;;;;;;;;4993144;28;20196;-42
2022/07/20 01:34:15;;;;;;;6.80;3.20;;;;;;;;;;4992415;28;20510;-42
2022/07/20 01:36:41;;;;;;;7.13;3.73;;;;;;;;;;4995410;28;20177;-41
2022/07/20 01:39:07;;;;;;;7.27;2.90;;;;;;;;;;4992370;28;20704;-42
2022/07/20 01:41:33;;;;;;;4.50;3.33;;;;;;;;;;4989752;28;20659;-42
2022/07/20 01:43:59;;;;;;;6.30;3.23;;;;;;;;;;4993231;28;20184;-42
2022/07/20 01:46:25;;;;;;;5.93;2.90;;;;;;;;;;4995622;28;20292;-42
2022/07/20 01:48:51;;;;;;;5.93;3.17;;;;;;;;;;4991178;28;20975;-40
2022/07/20 01:51:17;;;;;;;5.93;3.20;;;;;;;;;;4993154;28;20921;-42
2022/07/20 01:53:44;;;;;;;9.47;3.30;;;;;;;;;;4993663;28;20289;-42
2022/07/20 01:56:10;;;;;;;6.03;3.53;;;;;;;;;;4995415;28;20692;-43
2022/07/20 01:58:36;;;;;;;6.80;3.20;;;;;;;;;;4992120;28;20767;-43
2022/07/20 02:01:03;;;;;;;5.63;3.27;;;;;;;;;;4992453;28;20173;-43
2022/07/20 02:03:29;;;;;;;5.00;3.30;;;;;;;;;;4994667;28;20264;-43
2022/07/20 02:05:55;;;;;;;4.83;3.00;;;;;;;;;;5024204;28;20729;-43
2022/07/20 02:08:25;;;;;;;4.73;3.10;;;;;;;;;;4990615;28;20181;-43
2022/07/20 02:10:51;;;;;;;5.37;3.23;;;;;;;;;;4993644;28;21127;-42
2022/07/20 02:13:17;;;;;;;3.77;3.03;;;;;;;;;;4993942;28;20181;-42
2022/07/20 02:18:28;;;;;;;7.80;2.93;;;;;;;;;;4988934;28;20313;-42
2022/07/20 02:20:54;;;;;;;4.43;2.97;;;;;;;;;;4990379;28;20764;-42
2022/07/20 02:23:20;;;;;;;3.47;2.93;;;;;;;;;;4992418;28;20457;-42
2022/07/20 02:25:46;;;;;;;5.30;2.97;;;;;;;;;;4991164;28;20521;-41
2022/07/20 02:28:12;;;;;;;4.87;2.80;;;;;;;;;;4989582;28;20893;-42
2022/07/20 02:30:40;;;;;;;5.17;3.10;;;;;;;;;;4991113;28;20246;-42
2022/07/20 02:33:06;;;;;;;4.37;2.87;;;;;;;;;;4991611;28;20191;-42
2022/07/20 02:35:32;;;;;;;5.60;3.27;;;;;;;;;;4990768;28;20298;-42
2022/07/20 02:37:58;;;;;;;5.50;2.90;;;;;;;;;;4988444;28;20829;-42
2022/07/20 02:40:25;;;;;;;3.70;2.77;;;;;;;;;;4993835;28;20185;-42
2022/07/20 02:42:51;;;;;;;6.40;2.90;;;;;;;;;;4991630;28;20650;-42
2022/07/20 02:45:17;;;;;;;5.30;3.10;;;;;;;;;;4991166;28;20655;-42
2022/07/20 02:47:44;;;;;;;3.83;3.00;;;;;;;;;;4993086;28;21297;-42
2022/07/20 02:50:11;;;;;;;5.27;3.40;;;;;;;;;;4991782;28;20282;-42
2022/07/20 02:52:37;;;;;;;4.47;3.33;;;;;;;;;;4990327;28;20333;-45
2022/07/20 02:55:04;;;;;;;5.20;3.27;;;;;;;;;;4988786;28;20631;-42
2022/07/20 02:57:30;;;;;;;5.27;3.30;;;;;;;;;;4993892;28;20177;-42
2022/07/20 02:59:56;;;;;;;6.67;3.20;;;;;;;;;;5023291;28;20957;-41
2022/07/20 03:02:22;;;;;;;6.63;3.40;;;;;;;;;;4992387;28;20450;-42
2022/07/20 03:04:48;;;;;;;4.17;2.77;;;;;;;;;;4989761;28;20485;-42
2022/07/20 03:07:14;;;;;;;5.47;2.97;;;;;;;;;;4990906;28;20379;-43
2022/07/20 03:09:40;;;;;;;4.30;3.17;;;;;;;;;;4990411;28;20184;-43
2022/07/20 03:12:07;;;;;;;3.40;2.90;;;;;;;;;;4993500;28;20418;-42
2022/07/20 03:14:33;;;;;;;4.43;3.00;;;;;;;;;;4989901;28;20372;-42
2022/07/20 03:16:59;;;;;;;5.20;3.20;;;;;;;;;;4991833;28;20557;-43
2022/07/20 03:19:25;;;;;;;6.23;3.33;;;;;;;;;;4985820;28;22018;-42
2022/07/20 03:21:51;;;;;;;5.67;3.20;;;;;;;;;;4991532;28;20188;-42
2022/07/20 03:24:17;;;;;;;6.40;3.60;;;;;;;;;;4994782;28;20226;-42
2022/07/20 03:26:44;;;;;;;6.30;3.30;;;;;;;;;;5022978;28;20216;-43
2022/07/20 03:29:10;;;;;;;5.77;3.50;;;;;;;;;;4991098;28;20192;-42
2022/07/20 03:31:36;;;;;;;6.53;3.30;;;;;;;;;;4991552;28;20751;-43
2022/07/20 03:34:02;;;;;;;6.03;3.03;;;;;;;;;;4993282;28;20566;-43
2022/07/20 03:36:28;;;;;;;4.47;3.20;;;;;;;;;;4995072;28;20905;-43
2022/07/20 03:38:54;;;;;;;4.60;3.10;;;;;;;;;;4989852;28;20211;-42
2022/07/20 03:41:20;;;;;;;6.33;3.40;;;;;;;;;;4990176;28;20719;-43
2022/07/20 03:43:46;;;;;;;7.13;3.50;;;;;;;;;;4991192;28;20806;-42
2022/07/20 03:46:17;;;;;;;5.50;3.27;;;;;;;;;;4988215;28;22309;-43
2022/07/20 03:48:43;;;;;;;6.33;3.53;;;;;;;;;;4989973;28;20176;-45
2022/07/20 03:51:09;;;;;;;7.37;3.87;;;;;;;;;;4991342;28;20887;-42
2022/07/20 03:53:35;;;;;;;5.87;3.23;;;;;;;;;;4992217;28;20188;-42
2022/07/20 03:56:01;;;;;;;6.40;3.43;;;;;;;;;;4991074;28;20185;-44
2022/07/20 03:58:27;;;;;;;4.63;3.37;;;;;;;;;;4990708;28;20211;-42
2022/07/20 04:00:53;;;;;;;5.17;3.10;;;;;;;;;;4991457;28;20181;-43
2022/07/20 04:03:19;;;;;;;5.77;3.30;;;;;;;;;;4993870;28;20300;-43
2022/07/20 04:05:46;;;;;;;5.50;3.07;;;;;;;;;;4990994;28;20575;-43
2022/07/20 04:08:12;;;;;;;7.37;4.03;;;;;;;;;;4990362;28;20846;-43
2022/07/20 04:10:38;;;;;;;11.83;4.07;;;;;;;;;;4989065;28;20569;-42
2022/07/20 04:13:05;;;;;;;8.47;3.93;;;;;;;;;;4992808;28;20981;-43
2022/07/20 04:15:31;;;;;;;9.60;4.10;;;;;;;;;;4986886;28;20461;-44
2022/07/20 04:17:57;;;;;;;5.97;3.30;;;;;;;;;;4992518;28;20473;-42
2022/07/20 04:20:23;;;;;;;7.97;3.50;;;;;;;;;;4992649;28;20624;-43
2022/07/20 04:22:49;;;;;;;4.93;3.77;;;;;;;;;;4994963;28;20840;-44
2022/07/20 04:25:15;;;;;;;8.17;3.60;;;;;;;;;;4997257;28;20173;-42
2022/07/20 04:27:42;;;;;;;6.73;3.80;;;;;;;;;;4994247;28;20745;-42
2022/07/20 04:30:09;;;;;;;7.07;3.90;;;;;;;;;;5024936;28;20710;-42
2022/07/20 04:32:35;;;;;;;18.47;5.50;;;;;;;;;;4995715;28;20185;-43
2022/07/20 04:35:01;;;;;;;15.23;4.67;;;;;;;;;;4992353;28;20623;-44
2022/07/20 04:37:28;;;;;;;7.80;4.07;;;;;;;;;;4995314;28;20239;-44
2022/07/20 04:39:54;;;;;;;5.90;4.17;;;;;;;;;;4996889;28;20880;-42
2022/07/20 04:42:20;;;;;;;7.70;4.10;;;;;;;;;;5022716;28;20496;-42
2022/07/20 04:44:46;;;;;;;8.37;3.30;;;;;;;;;;4997328;28;20187;-43
2022/07/20 04:47:12;;;;;;;6.87;3.80;;;;;;;;;;5008298;28;20213;-43
2022/07/20 04:49:38;;;;;;;7.23;4.13;;;;;;;;;;4999675;28;20589;-43
2022/07/20 04:52:04;;;;;;;9.17;4.23;;;;;;;;;;4999536;28;20173;-42
2022/07/20 04:54:30;;;;;;;23.37;6.40;;;;;;;;;;5003908;28;20201;-43
2022/07/20 04:56:56;;;;;;;8.00;4.40;;;;;;;;;;5001417;28;20464;-42
2022/07/20 04:59:22;;;;;;;5.83;3.70;;;;;;;;;;5006399;28;20307;-42
2022/07/20 05:01:49;;;;;;;10.33;4.17;;;;;;;;;;5002765;28;20475;-43
2022/07/20 05:04:15;;;;;;;6.43;3.73;;;;;;;;;;5001236;28;20177;-43
2022/07/20 05:06:41;;;;;;;8.40;3.90;;;;;;;;;;5007637;28;20183;-43
2022/07/20 05:09:09;;;;;;;5.87;3.50;;;;;;;;;;5005094;28;20592;-43
2022/07/20 05:11:36;;;;;;;9.20;3.50;;;;;;;;;;5007425;28;20634;-43
2022/07/20 05:14:02;;;;;;;6.90;3.77;;;;;;;;;;5005556;28;20278;-44
2022/07/20 05:16:28;;;;;;;9.97;4.13;;;;;;;;;;5002910;28;20184;-43
2022/07/20 05:18:54;;;;;;;9.87;3.97;;;;;;;;;;5004902;28;20433;-43
2022/07/20 05:21:20;;;;;;;8.07;4.07;;;;;;;;;;5004344;28;20275;-43
2022/07/20 05:23:46;;;;;;;9.47;3.80;;;;;;;;;;5004666;28;20169;-43
2022/07/20 05:26:12;;;;;;;11.57;4.10;;;;;;;;;;5002142;28;20173;-43
2022/07/20 05:28:42;;;;;;;8.90;4.07;;;;;;;;;;4998370;28;20195;-43
2022/07/20 05:31:09;;;;;;;10.40;4.63;;;;;;;;;;5007130;28;20172;-43
2022/07/20 05:33:35;;;;;;;9.40;4.30;;;;;;;;;;5005510;28;20526;-42
2022/07/20 05:36:02;;;;;;;19.30;8.53;;;;;;;;;;5003865;28;20924;-42
2022/07/20 05:38:29;;;;;;;25.77;11.57;;;;;;;;;;5004314;28;20188;-42
2022/07/20 05:40:56;;;;;;;27.90;12.17;;;;;;;;;;5005489;28;20694;-42
2022/07/20 05:43:22;;;;;;;22.93;13.97;;;;;;;;;;5005417;28;20176;-42
2022/07/20 05:45:48;;;;;;;26.50;13.40;;;;;;;;;;5011644;28;20334;-42
2022/07/20 05:48:15;;;;;;;29.00;14.90;;;;;;;;;;5006869;28;20188;-42
2022/07/20 05:50:42;;;;;;;24.90;14.73;;;;;;;;;;5001195;28;20754;-42
2022/07/20 05:53:08;;;;;;;26.03;15.03;;;;;;;;;;5007544;28;20898;-41
2022/07/20 05:55:35;;;;;;;21.47;13.40;;;;;;;;;;5007774;28;20487;-42
2022/07/20 05:58:01;;;;;;;25.40;13.57;;;;;;;;;;5004469;28;20177;-43
2022/07/20 06:00:28;;;;;;;24.93;13.03;;;;;;;;;;5007509;28;20840;-43
2022/07/20 06:02:54;;;;;;;21.77;13.03;;;;;;;;;;5004065;28;20188;-43
2022/07/20 06:05:20;;;;;;;23.53;13.77;;;;;;;;;;5008331;28;20600;-43
2022/07/20 06:07:46;;;;;;;24.63;13.40;;;;;;;;;;5007765;28;20250;-42
2022/07/20 06:10:12;;;;;;;22.33;12.73;;;;;;;;;;5006491;28;20192;-42
2022/07/20 06:12:38;;;;;;;18.03;10.60;;;;;;;;;;5009401;28;20180;-42
2022/07/20 06:15:05;;;;;;;23.67;13.00;;;;;;;;;;5007385;28;20934;-43
2022/07/20 06:17:35;;;;;;;20.63;12.60;;;;;;;;;;5006488;28;20194;-43
2022/07/20 06:20:05;;;;;;;25.80;13.20;;;;;;;;;;5004293;28;20630;-42
2022/07/20 06:22:31;;;;;;;19.27;11.20;;;;;;;;;;5009284;28;20175;-42
2022/07/20 06:24:57;;;;;;;24.80;13.30;;;;;;;;;;5007954;28;20366;-42
2022/07/20 06:27:23;;;;;;;24.33;13.07;;;;;;;;;;5002881;28;20181;-43
2022/07/20 06:29:49;;;;;;;25.57;15.57;;;;;;;;;;5008174;28;20340;-43
2022/07/20 06:32:15;;;;;;;25.17;15.17;;;;;;;;;;5007759;28;20862;-43
2022/07/20 06:34:42;;;;;;;25.27;15.93;;;;;;;;;;5003212;28;20172;-42
2022/07/20 06:37:08;;;;;;;27.47;16.53;;;;;;;;;;5001961;28;20755;-42
2022/07/20 06:39:34;;;;;;;25.33;14.80;;;;;;;;;;5009219;28;20192;-42
2022/07/20 06:42:00;;;;;;;27.13;15.50;;;;;;;;;;5002222;28;20172;-43
2022/07/20 06:44:26;;;;;;;26.80;15.63;;;;;;;;;;5008324;28;20640;-43
2022/07/20 06:46:52;;;;;;;28.73;15.80;;;;;;;;;;5007720;28;20176;-43
2022/07/20 06:49:18;;;;;;;24.23;14.87;;;;;;;;;;5009278;28;20243;-43
2022/07/20 06:51:44;;;;;;;31.90;17.50;;;;;;;;;;5007365;28;20619;-42
2022/07/20 06:54:11;;;;;;;30.70;15.73;;;;;;;;;;5006146;28;20510;-42
2022/07/20 06:56:37;;;;;;;27.40;15.60;;;;;;;;;;5007279;28;20181;-42
2022/07/20 06:59:03;;;;;;;32.80;17.80;;;;;;;;;;5009688;28;20188;-42
2022/07/20 07:01:29;;;;;;;30.97;14.67;;;;;;;;;;5005002;28;20600;-41
2022/07/20 07:03:55;;;;;;;22.27;12.77;;;;;;;;;;5004916;28;20172;-41
2022/07/20 07:06:24;;;;;;;23.57;12.30;;;;;;;;;;5007446;28;20260;-41
2022/07/20 07:08:50;;;;;;;27.00;12.57;;;;;;;;;;5006179;28;20632;-42
2022/07/20 07:11:16;;;;;;;24.10;11.93;;;;;;;;;;5006078;28;20975;-42
2022/07/20 07:13:42;;;;;;;25.40;12.23;;;;;;;;;;5005289;28;20168;-42
2022/07/20 07:16:08;;;;;;;20.53;11.63;;;;;;;;;;5010206;28;20393;-42
2022/07/20 07:18:34;;;;;;;24.07;13.73;;;;;;;;;;5003152;28;20239;-42
2022/07/20 07:21:00;;;;;;;22.43;11.70;;;;;;;;;;5006414;28;20709;-43
2022/07/20 07:23:27;;;;;;;20.37;11.93;;;;;;;;;;5007955;28;20574;-43
2022/07/20 07:25:53;;;;;;;25.23;12.63;;;;;;;;;;5007931;28;20212;-43
2022/07/20 07:28:19;;;;;;;22.40;10.53;;;;;;;;;;5002059;28;20656;-42
2022/07/20 07:30:45;;;;;;;24.70;11.97;;;;;;;;;;5006975;28;20192;-43
2022/07/20 07:33:11;;;;;;;20.97;11.07;;;;;;;;;;5008226;28;20180;-42
2022/07/20 07:35:37;;;;;;;21.03;10.93;;;;;;;;;;5006096;28;20176;-42
2022/07/20 07:38:03;;;;;;;26.13;11.20;;;;;;;;;;5004409;28;20173;-42
2022/07/20 07:40:30;;;;;;;24.93;12.77;;;;;;;;;;5008229;28;20597;-42
2022/07/20 07:42:56;;;;;;;26.60;14.27;;;;;;;;;;5008219;28;20772;-42
2022/07/20 07:45:22;;;;;;;33.13;17.07;;;;;;;;;;5009627;28;20171;-42
2022/07/20 07:47:48;;;;;;;44.97;24.20;;;;;;;;;;5003528;28;20188;-42
2022/07/20 07:50:14;;;;;;;35.53;19.10;;;;;;;;;;5003887;28;20505;-42
2022/07/20 07:52:40;;;;;;;33.23;19.80;;;;;;;;;;5008584;28;20219;-42
2022/07/20 07:55:07;;;;;;;39.40;22.13;;;;;;;;;;5007532;28;20181;-42
2022/07/20 07:57:33;;;;;;;38.77;20.47;;;;;;;;;;5007517;28;20901;-42
2022/07/20 07:59:59;;;;;;;32.13;17.57;;;;;;;;;;5008262;28;20204;-42
2022/07/20 08:02:25;;;;;;;26.43;14.77;;;;;;;;;;5013746;28;20335;-42
2022/07/20 08:04:51;;;;;;;20.13;11.60;;;;;;;;;;5009791;28;20288;-42
2022/07/20 08:07:17;;;;;;;23.13;10.93;;;;;;;;;;5008394;28;20621;-42
2022/07/20 08:09:44;;;;;;;22.53;11.47;;;;;;;;;;5008632;28;20180;-42
2022/07/20 08:12:10;;;;;;;13.90;7.83;;;;;;;;;;5008395;28;20984;-42
2022/07/20 08:14:37;;;;;;;13.47;7.53;;;;;;;;;;5005741;28;20185;-42
2022/07/20 08:17:03;;;;;;;11.67;6.73;;;;;;;;;;5012075;28;20188;-42
2022/07/20 08:19:29;;;;;;;8.93;5.27;;;;;;;;;;5042920;28;20286;-42
2022/07/20 08:21:56;;;;;;;8.20;4.33;;;;;;;;;;5012732;28;20173;-42
2022/07/20 08:24:22;;;;;;;8.50;4.07;;;;;;;;;;5009617;28;20181;-42
2022/07/20 08:26:48;;;;;;;9.97;3.20;;;;;;;;;;5010061;28;20195;-42
2022/07/20 08:29:14;;;;;;;5.27;3.00;;;;;;;;;;5013326;28;20169;-41
2022/07/20 08:31:40;;;;;;;5.97;2.90;;;;;;;;;;5010529;28;20841;-42
2022/07/20 08:34:06;;;;;;;5.70;3.30;;;;;;;;;;5008444;28;20210;-42
2022/07/20 08:36:32;;;;;;;8.40;3.40;;;;;;;;;;5012759;28;20173;-41
2022/07/20 08:38:58;;;;;;;9.83;3.70;;;;;;;;;;5010863;28;20192;-42
2022/07/20 08:41:25;;;;;;;8.07;3.00;;;;;;;;;;5012904;28;20187;-42
2022/07/20 08:43:51;;;;;;;4.43;2.97;;;;;;;;;;5007218;28;20169;-43
2022/07/20 08:46:18;;;;;;;6.50;3.10;;;;;;;;;;5008765;28;20447;-43
2022/07/20 08:48:44;;;;;;;4.60;2.90;;;;;;;;;;5012573;28;20239;-43
2022/07/20 08:51:10;;;;;;;5.10;2.43;;;;;;;;;;5011874;28;20688;-43
2022/07/20 08:53:37;;;;;;;4.40;2.33;;;;;;;;;;5012574;28;20191;-42
2022/07/20 08:56:03;;;;;;;6.93;2.70;;;;;;;;;;5005512;28;20180;-42
2022/07/20 08:58:29;;;;;;;9.93;2.83;;;;;;;;;;5004085;28;20577;-43
2022/07/20 09:00:55;;;;;;;5.97;2.50;;;;;;;;;;5011352;28;20187;-41
2022/07/20 09:03:21;;;;;;;3.90;2.30;;;;;;;;;;5010671;28;20212;-43
2022/07/20 09:06:01;;;;;;;3.67;1.93;;;;;;;;;;5005831;28;20586;-43
2022/07/20 09:08:27;;;;;;;3.40;2.20;;;;;;;;;;5007651;28;20181;-43
2022/07/20 09:10:53;;;;;;;5.13;1.70;;;;;;;;;;5012049;28;20383;-43
2022/07/20 09:13:21;;;;;;;4.10;2.10;;;;;;;;;;5011645;28;21111;-43
2022/07/20 09:15:49;;;;;;;2.77;1.70;;;;;;;;;;5008628;28;20177;-43
2022/07/20 09:18:25;;;;;;;2.90;1.60;;;;;;;;;;5008708;28;20181;-42
2022/07/20 09:20:52;;;;;;;2.17;1.73;;;;;;;;;;5008897;28;20174;-42
2022/07/20 09:23:25;;;;;;;2.63;1.77;;;;;;;;;;5008966;28;20399;-43
2022/07/20 09:25:54;;;;;;;1.93;1.50;;;;;;;;;;5006899;28;20513;-41
2022/07/20 09:28:20;;;;;;;3.27;1.70;;;;;;;;;;5013389;28;20181;-43
2022/07/20 09:30:50;;;;;;;3.43;1.40;;;;;;;;;;5008522;28;20593;-43
2022/07/20 09:33:23;;;;;;;4.23;1.53;;;;;;;;;;5006623;28;20177;-43
2022/07/20 09:35:49;;;;;;;9.13;2.00;;;;;;;;;;5008041;28;20176;-42
2022/07/20 09:38:15;;;;;;;3.40;1.60;;;;;;;;;;5009419;28;20168;-43
2022/07/20 09:40:43;;;;;;;2.83;1.43;;;;;;;;;;5007375;28;20168;-43
2022/07/20 09:43:25;;;;;;;6.40;1.80;;;;;;;;;;5004901;28;20645;-43
2022/07/20 09:45:53;;;;;;;2.50;1.67;;;;;;;;;;5005054;28;20169;-43
2022/07/20 09:48:22;;;;;;;2.27;1.63;;;;;;;;;;5005840;28;20172;-43
2022/07/20 09:50:48;;;;;;;3.90;1.60;;;;;;;;;;5010181;28;20218;-42
2022/07/20 09:53:14;;;;;;;2.80;1.67;;;;;;;;;;5005620;28;20185;-43
2022/07/20 09:55:41;;;;;;;1.93;1.70;;;;;;;;;;5010887;28;20180;-43
2022/07/20 09:58:08;;;;;;;2.70;1.60;;;;;;;;;;5007215;28;20172;-42
2022/07/20 10:00:35;;;;;;;5.47;1.63;;;;;;;;;;5005194;28;20263;-42
2022/07/20 10:03:02;;;;;;;4.20;1.50;;;;;;;;;;5006105;28;20280;-42
2022/07/20 10:05:30;;;;;;;2.67;1.40;;;;;;;;;;5012188;28;20177;-42
2022/07/20 10:07:56;;;;;;;4.73;1.70;;;;;;;;;;5010428;28;20703;-42
2022/07/20 10:10:22;;;;;;;2.13;1.77;;;;;;;;;;5005642;28;20180;-40
2022/07/20 10:12:48;;;;;;;3.17;1.87;;;;;;;;;;5037502;28;20551;-42
2022/07/20 10:15:16;;;;;;;2.97;1.60;;;;;;;;;;5010999;28;20769;-42
2022/07/20 10:17:44;;;;;;;2.30;1.60;;;;;;;;;;5007547;28;20796;-42
2022/07/20 10:20:29;;;;;;;2.43;1.50;;;;;;;;;;5010627;28;21017;-42
2022/07/20 10:23:18;;;;;;;3.53;2.00;;;;;;;;;;5012618;28;20631;-43
2022/07/20 10:25:45;;;;;;;6.83;2.10;;;;;;;;;;5007037;28;20877;-43
2022/07/20 10:28:23;;;;;;;3.20;1.90;;;;;;;;;;5011561;28;20177;-43
2022/07/20 10:31:02;;;;;;;5.40;2.23;;;;;;;;;;5008036;28;20688;-42
2022/07/20 10:33:28;;;;;;;5.73;2.07;;;;;;;;;;5002343;28;20187;-42
2022/07/20 10:38:39;;;;;;;4.63;1.90;;;;;;;;;;5002903;28;20664;-43
2022/07/20 10:44:14;;;;;;;3.83;2.03;;;;;;;;;;5003785;28;20254;-43
2022/07/20 10:46:41;;;;;;;4.00;1.97;;;;;;;;;;5004415;28;20192;-44
2022/07/20 10:49:07;;;;;;;3.33;2.37;;;;;;;;;;5007767;28;20791;-44
2022/07/20 10:51:33;;;;;;;3.93;2.30;;;;;;;;;;5009728;28;20223;-44
2022/07/20 10:54:19;;;;;;;7.13;2.10;;;;;;;;;;5010483;28;21530;-44
2022/07/20 10:56:45;;;;;;;4.87;2.60;;;;;;;;;;5006038;28;20212;-43
2022/07/20 10:59:11;;;;;;;5.13;2.47;;;;;;;;;;5006616;28;20716;-44
2022/07/20 11:01:37;;;;;;;5.90;2.13;;;;;;;;;;5009526;28;20191;-43
2022/07/20 11:04:11;;;;;;;5.77;2.40;;;;;;;;;;5008279;28;20173;-43
2022/07/20 11:06:38;;;;;;;3.90;2.50;;;;;;;;;;5006613;28;20639;-43
2022/07/20 11:09:05;;;;;;;4.07;2.77;;;;;;;;;;5005231;28;20185;-44
2022/07/20 11:11:32;;;;;;;4.63;2.37;;;;;;;;;;5003190;28;20182;-43
2022/07/20 11:13:59;;;;;;;6.33;2.47;;;;;;;;;;5009301;28;20595;-43
2022/07/20 11:16:26;;;;;;;4.23;2.33;;;;;;;;;;5008773;28;20847;-43
2022/07/20 11:18:53;;;;;;;4.60;2.37;;;;;;;;;;5005019;28;20643;-44
2022/07/20 11:21:27;;;;;;;3.17;2.33;;;;;;;;;;5006445;28;20177;-43
2022/07/20 11:23:53;;;;;;;4.20;2.10;;;;;;;;;;5007837;28;20184;-42
2022/07/20 11:26:21;;;;;;;8.27;2.50;;;;;;;;;;5006705;28;20176;-43
2022/07/20 11:28:54;;;;;;;6.30;2.90;;;;;;;;;;5003150;28;20231;-43
2022/07/20 11:31:21;;;;;;;3.57;2.10;;;;;;;;;;5005744;28;20275;-43
2022/07/20 11:33:48;;;;;;;4.73;2.10;;;;;;;;;;5007540;28;20176;-43
2022/07/20 11:36:16;;;;;;;8.13;2.30;;;;;;;;;;5005637;28;20177;-43
2022/07/20 11:38:46;;;;;;;4.27;2.30;;;;;;;;;;5003801;28;20674;-43
2022/07/20 11:41:14;;;;;;;4.00;2.43;;;;;;;;;;5007678;28;20180;-43
2022/07/20 11:43:40;;;;;;;2.97;2.20;;;;;;;;;;5010705;28;20183;-43
2022/07/20 11:46:09;;;;;;;4.27;2.07;;;;;;;;;;5003588;28;20597;-42
2022/07/20 11:48:36;;;;;;;2.60;2.30;;;;;;;;;;5005260;28;20188;-43
2022/07/20 11:51:02;;;;;;;3.97;2.30;;;;;;;;;;5006637;28;20279;-43
2022/07/20 11:53:29;;;;;;;6.53;2.37;;;;;;;;;;5007974;28;20192;-42
2022/07/20 11:55:57;;;;;;;5.03;2.30;;;;;;;;;;5005690;28;20168;-42
2022/07/20 11:58:25;;;;;;;3.00;2.40;;;;;;;;;;5006267;28;20281;-43
2022/07/20 12:00:51;;;;;;;5.07;2.40;;;;;;;;;;5010283;28;20737;-43
2022/07/20 12:03:20;;;;;;;4.20;2.30;;;;;;;;;;5008232;28;20707;-43
2022/07/20 12:05:46;;;;;;;4.37;2.20;;;;;;;;;;5003684;28;20192;-43
2022/07/20 12:08:18;;;;;;;4.07;2.30;;;;;;;;;;5007846;28;20176;-43
2022/07/20 12:10:44;;;;;;;4.30;2.37;;;;;;;;;;5007878;28;20331;-43
2022/07/20 12:13:13;;;;;;;3.87;2.40;;;;;;;;;;5005862;28;20170;-43
2022/07/20 12:15:39;;;;;;;4.53;2.13;;;;;;;;;;5004954;28;20221;-42
2022/07/20 12:18:05;;;;;;;5.73;2.43;;;;;;;;;;5008410;28;20177;-43
2022/07/20 12:20:32;;;;;;;8.57;2.30;;;;;;;;;;5002423;28;20246;-43
2022/07/20 12:22:59;;;;;;;5.80;2.20;;;;;;;;;;5006886;28;20211;-43
2022/07/20 12:25:39;;;;;;;7.30;2.27;;;;;;;;;;5007556;28;20173;-43
2022/07/20 12:28:05;;;;;;;3.83;2.23;;;;;;;;;;5008207;28;21418;-43
2022/07/20 12:30:34;;;;;;;4.47;2.60;;;;;;;;;;5004261;28;20183;-43
2022/07/20 12:33:11;;;;;;;5.93;2.33;;;;;;;;;;5003018;28;20188;-43
2022/07/20 12:35:37;;;;;;;5.03;2.20;;;;;;;;;;4998402;28;20184;-43
2022/07/20 12:38:03;;;;;;;5.13;2.10;;;;;;;;;;4999739;28;20185;-43
2022/07/20 12:40:33;;;;;;;5.30;1.97;;;;;;;;;;5003274;28;20315;-43
2022/07/20 12:42:59;;;;;;;8.97;2.60;;;;;;;;;;5006414;28;20874;-43
2022/07/20 12:45:25;;;;;;;6.33;2.43;;;;;;;;;;5007395;28;21631;-43
2022/07/20 12:47:51;;;;;;;4.73;2.40;;;;;;;;;;5000665;28;20632;-43
2022/07/20 12:50:17;;;;;;;3.20;2.50;;;;;;;;;;5002958;28;21207;-43
2022/07/20 12:52:44;;;;;;;4.00;2.40;;;;;;;;;;5004598;28;20186;-43
2022/07/20 12:55:10;;;;;;;5.30;2.30;;;;;;;;;;4994001;28;20214;-43
2022/07/20 12:57:36;;;;;;;4.97;2.90;;;;;;;;;;4988949;28;20496;-43
2022/07/20 13:00:05;;;;;;;8.30;2.70;;;;;;;;;;4998383;28;20665;-42
2022/07/20 13:02:31;;;;;;;2.97;2.20;;;;;;;;;;5006754;28;20285;-42
2022/07/20 13:04:57;;;;;;;6.00;2.50;;;;;;;;;;5009140;28;20190;-43
2022/07/20 13:07:24;;;;;;;7.93;2.60;;;;;;;;;;5009650;28;20176;-43
2022/07/20 13:09:50;;;;;;;4.37;2.70;;;;;;;;;;5008459;28;20183;-43
2022/07/20 13:12:18;;;;;;;5.30;2.27;;;;;;;;;;5008153;28;20737;-43
2022/07/20 13:14:44;;;;;;;5.53;2.50;;;;;;;;;;5009704;28;20645;-42
2022/07/20 13:17:10;;;;;;;5.23;2.43;;;;;;;;;;5010533;28;20695;-42
2022/07/20 13:19:36;;;;;;;8.05;2.50;;;;;;;;;;5011433;28;20195;-42
2022/07/20 13:22:02;;;;;;;5.68;2.53;;;;;;;;;;5011299;28;20212;-41
2022/07/20 13:24:28;;;;;;;5.03;2.70;;;;;;;;;;5006049;28;20245;-42
2022/07/20 13:26:55;;;;;;;5.40;2.25;;;;;;;;;;5006852;28;20180;-42
2022/07/20 13:29:21;;;;;;;5.93;2.60;;;;;;;;;;5008966;28;20192;-42
2022/07/20 13:31:47;;;;;;;5.10;2.42;;;;;;;;;;5011710;28;20540;-42
2022/07/20 13:34:13;;;;;;;6.97;2.40;;;;;;;;;;5008756;28;20511;-42
2022/07/20 13:36:40;;;;;;;4.78;2.30;;;;;;;;;;5008642;28;20599;-42
2022/07/20 13:39:06;;;;;;;5.43;2.60;;;;;;;;;;5008133;28;20622;-42
2022/07/20 13:41:32;;;;;;;3.10;2.28;;;;;;;;;;5012410;28;20180;-42
2022/07/20 13:43:58;;;;;;;3.63;2.42;;;;;;;;;;5010350;28;20211;-42
2022/07/20 13:46:24;;;;;;;3.15;2.20;;;;;;;;;;5009974;28;21308;-42
2022/07/20 13:48:51;;;;;;;3.80;2.13;;;;;;;;;;5010988;28;20436;-41
2022/07/20 13:51:18;;;;;;;7.90;2.78;;;;;;;;;;5010629;28;20412;-40
2022/07/20 13:53:44;;;;;;;8.05;2.50;;;;;;;;;;5009942;28;20253;-42
2022/07/20 13:56:10;;;;;;;6.45;2.38;;;;;;;;;;5009470;28;20300;-42
2022/07/20 13:58:38;;;;;;;5.10;2.38;;;;;;;;;;5010408;28;20493;-42
2022/07/20 14:01:05;;;;;;;3.95;2.25;;;;;;;;;;5011426;28;20165;-42
2022/07/20 14:03:31;;;;;;;6.07;2.40;;;;;;;;;;5012655;28;20231;-43
2022/07/20 14:05:57;;;;;;;6.85;2.40;;;;;;;;;;5008123;28;20491;-42
2022/07/20 14:08:23;;;;;;;6.15;2.70;;;;;;;;;;5012234;28;20173;-42
2022/07/20 14:10:51;;;;;;;5.20;2.65;;;;;;;;;;5013470;28;20232;-42
2022/07/20 14:13:17;;;;;;;3.33;2.42;;;;;;;;;;5004119;28;20180;-42
2022/07/20 14:15:43;;;;;;;5.07;2.38;;;;;;;;;;5007988;28;20172;-42
2022/07/20 14:18:10;;;;;;;5.28;2.22;;;;;;;;;;5010122;28;20170;-42
2022/07/20 14:20:36;;;;;;;5.80;2.85;;;;;;;;;;5008216;28;20409;-42
2022/07/20 14:23:02;;;;;;;4.88;2.58;;;;;;;;;;5006897;28;20917;-43
2022/07/20 14:25:28;;;;;;;5.13;2.63;;;;;;;;;;5005619;28;20191;-44
2022/07/20 14:27:54;;;;;;;4.55;2.30;;;;;;;;;;5010477;28;21047;-44
2022/07/20 14:30:20;;;;;;;4.30;2.40;;;;;;;;;;5010394;28;20222;-44
2022/07/20 14:32:46;;;;;;;3.10;2.42;;;;;;;;;;5008178;28;20176;-42
2022/07/20 14:35:12;;;;;;;4.72;2.20;;;;;;;;;;5010908;28;20183;-44
2022/07/20 14:37:39;;;;;;;7.43;2.40;;;;;;;;;;5011393;28;20178;-44
2022/07/20 14:40:06;;;;;;;3.75;2.70;;;;;;;;;;5009148;28;20761;-44
2022/07/20 14:42:32;;;;;;;5.80;2.58;;;;;;;;;;5006472;28;20863;-44
2022/07/20 14:44:58;;;;;;;3.88;2.60;;;;;;;;;;5011849;28;20204;-44
2022/07/20 14:47:24;;;;;;;3.88;2.35;;;;;;;;;;5007580;28;20172;-44